createdAt,value
2018-02-17T15:33:34.047Z,524
2018-02-17T15:35:35.840Z,512
2018-02-17T15:37:37.498Z,496
2018-02-17T15:39:39.171Z,492
2018-02-17T15:41:40.598Z,484
2018-02-17T15:43:42.092Z,472
2018-02-17T15:45:43.727Z,480
2018-02-17T15:47:45.333Z,480
2018-02-17T15:49:47.146Z,456
2018-02-17T15:51:48.634Z,424
2018-02-17T15:53:50.522Z,412
2018-02-17T15:55:52.256Z,416
2018-02-17T15:57:54.363Z,404
2018-02-17T15:59:55.913Z,384
2018-02-17T16:01:57.607Z,368
2018-02-17T16:03:59.471Z,352
2018-02-17T16:06:01.136Z,336
2018-02-17T16:08:02.752Z,320
2018-02-17T16:10:04.424Z,304
2018-02-17T16:12:06.186Z,284
2018-02-17T16:14:08.180Z,268
2018-02-17T16:16:09.816Z,248
2018-02-17T16:18:11.671Z,228
2018-02-17T16:20:13.409Z,212
2018-02-17T16:22:15.160Z,192
2018-02-17T16:24:16.924Z,176
2018-02-17T16:26:18.606Z,160
2018-02-17T16:28:20.508Z,148
2018-02-17T16:30:22.221Z,132
2018-02-17T16:32:24.099Z,120
2018-02-17T16:34:25.829Z,108
2018-02-17T16:36:27.684Z,92
2018-02-17T16:38:29.411Z,80
2018-02-17T16:40:31.261Z,72
2018-02-17T16:44:17.597Z,52
2018-02-17T16:46:19.011Z,44
2018-02-17T16:48:20.416Z,36
2018-02-17T16:50:21.829Z,28
2018-02-17T16:52:23.480Z,24
2018-02-17T16:54:24.946Z,16
2018-02-17T16:56:26.355Z,12
2018-02-17T16:58:27.763Z,12
2018-02-17T17:00:29.173Z,8
2018-02-17T17:02:30.652Z,8
2018-02-17T17:04:32.061Z,4
2018-02-17T17:06:33.437Z,4
2018-02-17T17:08:34.847Z,0
2018-02-17T17:10:36.266Z,0
2018-02-17T17:12:37.657Z,0
2018-02-17T17:14:39.078Z,0
2018-02-17T17:16:40.496Z,0
2018-02-17T17:18:41.904Z,0
2018-02-17T17:20:43.341Z,0
2018-02-17T17:22:44.743Z,0
2018-02-17T17:24:46.148Z,0
2018-02-17T17:26:47.559Z,0
2018-02-17T17:28:48.960Z,0
2018-02-17T17:30:50.374Z,0
2018-02-17T17:32:51.773Z,0
2018-02-17T17:34:53.214Z,0
2018-02-17T17:36:54.695Z,0
2018-02-17T17:38:56.096Z,0
2018-02-17T17:40:57.499Z,0
2018-02-17T17:42:58.902Z,0
2018-02-17T17:45:00.318Z,0
2018-02-17T17:47:02.002Z,0
2018-02-17T17:49:03.497Z,0
2018-02-17T17:51:05.174Z,0
2018-02-17T17:53:07.177Z,0
2018-02-17T17:55:09.521Z,0
2018-02-17T17:57:11.040Z,0
2018-02-17T17:59:12.713Z,0
2018-02-17T18:01:14.166Z,0
2018-02-17T18:03:15.615Z,0
2018-02-17T18:05:17.088Z,0
2018-02-17T18:07:18.612Z,0
2018-02-17T18:09:20.036Z,0
2018-02-17T18:11:21.479Z,0
2018-02-17T18:13:22.913Z,0
2018-02-17T18:15:24.482Z,0
2018-02-17T18:17:26.159Z,0
2018-02-17T18:19:27.661Z,0
2018-02-17T18:21:29.158Z,0
2018-02-17T18:23:30.631Z,0
2018-02-17T18:25:32.097Z,0
2018-02-17T18:27:33.577Z,0
2018-02-17T18:29:35.039Z,0
2018-02-17T18:31:36.501Z,0
2018-02-17T18:33:38.067Z,0
2018-02-17T18:35:39.550Z,0
2018-02-17T18:37:40.983Z,0
2018-02-17T18:39:43.252Z,0
2018-02-17T18:41:45.533Z,0
2018-02-17T18:43:47.724Z,0
2018-02-17T18:45:49.912Z,0
2018-02-17T18:47:51.413Z,0
2018-02-17T18:49:52.950Z,0
2018-02-17T18:51:54.578Z,0
2018-02-17T18:53:56.071Z,0
2018-02-17T18:55:57.542Z,0
2018-02-17T18:57:59.004Z,0
2018-02-17T19:00:00.497Z,0
2018-02-17T19:02:01.984Z,0
2018-02-17T19:04:04.248Z,0
2018-02-17T19:06:05.690Z,0
2018-02-17T19:08:07.210Z,0
2018-02-17T19:10:08.701Z,0
2018-02-17T19:12:10.188Z,0
2018-02-17T19:14:11.669Z,0
2018-02-17T19:16:13.117Z,0
2018-02-17T19:18:14.589Z,0
2018-02-17T19:20:16.215Z,0
2018-02-17T19:22:18.780Z,0
2018-02-17T19:24:20.406Z,0
2018-02-17T19:26:22.105Z,0
2018-02-17T19:28:23.586Z,0
2018-02-17T19:30:25.121Z,0
2018-02-17T19:32:26.580Z,0
2018-02-17T19:34:28.145Z,0
2018-02-17T19:36:29.662Z,0
2018-02-17T19:38:31.111Z,0
2018-02-17T19:40:32.775Z,0
2018-02-17T19:42:34.487Z,0
2018-02-17T19:44:36.014Z,0
2018-02-17T19:46:37.509Z,0
2018-02-17T19:48:39.174Z,0
2018-02-17T19:50:40.840Z,0
2018-02-17T19:52:42.360Z,0
2018-02-17T19:54:43.856Z,0
2018-02-17T19:56:45.355Z,0
2018-02-17T19:58:48.908Z,0
2018-02-17T20:00:50.321Z,0
2018-02-17T20:03:32.696Z,0
2018-02-17T20:05:34.102Z,0
2018-02-17T20:07:35.529Z,0
2018-02-17T20:09:37.301Z,0
2018-02-17T20:11:38.694Z,0
2018-02-17T20:13:40.188Z,0
2018-02-17T20:15:42.436Z,0
2018-02-17T20:17:45.011Z,0
2018-02-17T20:19:46.946Z,0
2018-02-17T20:21:48.403Z,0
2018-02-17T20:23:50.750Z,0
2018-02-17T20:25:53.443Z,0
2018-02-17T20:27:54.967Z,0
2018-02-17T20:29:56.469Z,0
2018-02-17T20:31:58.562Z,0
2018-02-17T20:34:00.093Z,0
2018-02-17T20:36:02.000Z,0
2018-02-17T20:38:03.465Z,0
2018-02-17T20:40:05.061Z,0
2018-02-17T20:42:06.672Z,0
2018-02-17T20:44:08.155Z,0
2018-02-17T20:46:09.651Z,0
2018-02-17T20:48:11.411Z,0
2018-02-17T20:50:13.010Z,0
2018-02-17T20:52:14.490Z,0
2018-02-17T20:54:16.050Z,0
2018-02-17T20:56:17.696Z,0
2018-02-17T20:58:19.395Z,0
2018-02-17T21:00:21.058Z,0
2018-02-17T21:02:22.723Z,0
2018-02-17T21:04:24.205Z,0
2018-02-17T21:06:25.725Z,0
2018-02-17T21:08:27.370Z,0
2018-02-17T21:10:29.024Z,0
2018-02-17T21:12:30.788Z,0
2018-02-17T21:14:32.699Z,0
2018-02-17T21:16:34.448Z,0
2018-02-17T21:18:35.941Z,0
2018-02-17T21:20:37.641Z,0
2018-02-17T21:22:39.501Z,0
2018-02-17T21:24:41.030Z,0
2018-02-17T21:26:42.548Z,0
2018-02-17T21:28:44.083Z,0
2018-02-17T21:30:46.130Z,0
2018-02-17T21:32:47.777Z,0
2018-02-17T21:34:49.357Z,0
2018-02-17T21:36:50.876Z,0
2018-02-17T21:38:52.405Z,0
2018-02-17T21:40:53.970Z,0
2018-02-17T21:42:55.350Z,0
2018-02-17T21:44:57.029Z,32
2018-02-17T21:46:59.144Z,0
2018-02-17T21:49:00.698Z,0
2018-02-17T21:51:02.412Z,0
2018-02-17T21:53:03.927Z,0
2018-02-17T21:55:05.781Z,0
2018-02-17T21:57:07.416Z,0
2018-02-17T21:59:08.904Z,0
2018-02-17T22:01:10.414Z,0
2018-02-17T22:03:52.158Z,0
2018-02-17T22:05:53.596Z,0
2018-02-17T22:07:55.625Z,0
2018-02-17T22:09:57.048Z,0
2018-02-17T22:11:58.504Z,0
2018-02-17T22:13:59.938Z,0
2018-02-17T22:16:01.345Z,0
2018-02-17T22:18:03.067Z,0
2018-02-17T22:20:05.442Z,0
2018-02-17T22:22:07.629Z,0
2018-02-17T22:24:09.545Z,0
2018-02-17T22:26:11.058Z,0
2018-02-17T22:28:12.622Z,0
2018-02-17T22:30:14.852Z,0
2018-02-17T22:32:16.401Z,0
2018-02-17T22:34:18.249Z,0
2018-02-17T22:36:19.974Z,0
2018-02-17T22:38:21.910Z,0
2018-02-17T22:40:24.185Z,0
2018-02-17T22:42:25.852Z,0
2018-02-17T22:44:27.591Z,0
2018-02-17T22:46:29.483Z,0
2018-02-17T22:48:31.740Z,0
2018-02-17T22:50:33.864Z,0
2018-02-17T22:52:35.434Z,0
2018-02-17T22:54:36.956Z,0
2018-02-17T22:56:39.127Z,0
2018-02-17T22:58:40.616Z,0
2018-02-17T23:00:42.133Z,0
2018-02-17T23:02:43.684Z,0
2018-02-17T23:04:45.181Z,0
2018-02-17T23:06:46.799Z,0
2018-02-17T23:08:48.697Z,0
2018-02-17T23:10:50.876Z,0
2018-02-17T23:12:52.610Z,0
2018-02-17T23:14:54.261Z,0
2018-02-17T23:16:56.118Z,0
2018-02-17T23:18:58.054Z,0
2018-02-17T23:20:59.663Z,0
2018-02-17T23:23:01.863Z,0
2018-02-17T23:25:03.352Z,0
2018-02-17T23:27:05.179Z,0
2018-02-17T23:29:07.408Z,0
2018-02-17T23:31:09.212Z,0
2018-02-17T23:33:11.428Z,0
2018-02-17T23:35:13.054Z,0
2018-02-17T23:37:14.901Z,0
2018-02-17T23:39:16.433Z,0
2018-02-17T23:41:18.620Z,0
2018-02-17T23:43:20.664Z,0
2018-02-17T23:45:22.931Z,0
2018-02-17T23:47:24.524Z,0
2018-02-17T23:49:26.359Z,0
2018-02-17T23:51:28.057Z,0
2018-02-17T23:53:29.869Z,0
2018-02-17T23:55:31.374Z,0
2018-02-17T23:57:33.524Z,0
2018-02-17T23:59:35.061Z,0
